Terminal Aerodrome Forecast
Issued by NWS

Home | Current Version | Previous Version | Text Only | Print | Product List | Glossary On
Versions: 1 2 3 4 5 6 7 8 9 10 11 12 13 14 15 16 17
000
FTAK31 PAFA 251128
TAFASC
TAF
PASC 251128Z 2512/2612 09017KT 1 1/2SM BR OVC003
     FM251500 08015KT 1 1/2SM -FZRASN BR OVC003
     FM251800 08012KT 1 1/2SM -SN BR OVC003
     FM260300 18011KT P6SM SCT007 BKN250=

USA.gov is the U.S. government's official web portal to all federal, state and local government web resources and services.